sensor_id;sensor_type;location;lat;lon;timestamp;pressure;altitude;pressure_sealevel;temperature;humidity
43824;BME280;29470;53.550;9.926;2023-03-21T00:04:31;101151.00;;;12.43;79.97
43824;BME280;29470;53.550;9.926;2023-03-21T00:09:53;101146.63;;;12.42;81.23
43824;BME280;29470;53.550;9.926;2023-03-21T00:15:06;101153.00;;;12.73;80.41
43824;BME280;29470;53.550;9.926;2023-03-21T00:20:10;101144.25;;;12.84;78.46
43824;BME280;29470;53.550;9.926;2023-03-21T00:25:18;101148.63;;;12.33;81.39
43824;BME280;29470;53.550;9.926;2023-03-21T00:30:21;101143.09;;;12.67;79.94
43824;BME280;29470;53.550;9.926;2023-03-21T00:35:24;101136.75;;;12.36;80.54
43824;BME280;29470;53.550;9.926;2023-03-21T00:40:49;101131.56;;;13.16;79.54
43824;BME280;29470;53.550;9.926;2023-03-21T00:45:52;101125.97;;;13.09;76.99
43824;BME280;29470;53.550;9.926;2023-03-21T00:50:56;101132.50;;;12.64;79.23
43824;BME280;29470;53.550;9.926;2023-03-21T00:56:01;101120.47;;;12.78;80.42
43824;BME280;29470;53.550;9.926;2023-03-21T01:01:04;101127.66;;;12.43;81.10
43824;BME280;29470;53.550;9.926;2023-03-21T01:06:10;101107.78;;;13.09;79.16
43824;BME280;29470;53.550;9.926;2023-03-21T01:11:17;101107.50;;;13.18;80.03
43824;BME280;29470;53.550;9.926;2023-03-21T01:16:21;101106.78;;;13.07;78.02
43824;BME280;29470;53.550;9.926;2023-03-21T01:21:23;101109.97;;;12.90;78.74
43824;BME280;29470;53.550;9.926;2023-03-21T01:26:28;101107.19;;;13.82;76.12
43824;BME280;29470;53.550;9.926;2023-03-21T01:31:31;101110.38;;;12.96;78.28
43824;BME280;29470;53.550;9.926;2023-03-21T01:36:34;101098.91;;;13.19;79.93
43824;BME280;29470;53.550;9.926;2023-03-21T01:41:42;101107.19;;;13.00;78.44
43824;BME280;29470;53.550;9.926;2023-03-21T01:46:54;101102.28;;;13.45;76.73
43824;BME280;29470;53.550;9.926;2023-03-21T01:52:33;101098.00;;;13.19;77.83
43824;BME280;29470;53.550;9.926;2023-03-21T01:58:02;101094.50;;;12.78;79.91
43824;BME280;29470;53.550;9.926;2023-03-21T02:03:46;101091.94;;;12.91;79.87
43824;BME280;29470;53.550;9.926;2023-03-21T02:09:07;101088.91;;;12.19;84.38
43824;BME280;29470;53.550;9.926;2023-03-21T02:14:15;101087.16;;;12.32;85.82
43824;BME280;29470;53.550;9.926;2023-03-21T02:20:05;101086.81;;;12.79;83.02
43824;BME280;29470;53.550;9.926;2023-03-21T02:31:16;101079.75;;;12.38;86.12
43824;BME280;29470;53.550;9.926;2023-03-21T02:36:26;101063.00;;;12.46;84.73
43824;BME280;29470;53.550;9.926;2023-03-21T02:41:40;101069.97;;;12.20;86.47
43824;BME280;29470;53.550;9.926;2023-03-21T02:46:50;101065.59;;;12.46;85.58
43824;BME280;29470;53.550;9.926;2023-03-21T02:52:07;101071.78;;;12.21;84.99
43824;BME280;29470;53.550;9.926;2023-03-21T02:57:25;101068.59;;;12.39;85.07
43824;BME280;29470;53.550;9.926;2023-03-21T03:02:43;101065.75;;;12.88;84.36
43824;BME280;29470;53.550;9.926;2023-03-21T03:08:09;101051.72;;;12.32;83.71
43824;BME280;29470;53.550;9.926;2023-03-21T03:13:32;101055.19;;;12.85;81.72
43824;BME280;29470;53.550;9.926;2023-03-21T03:18:40;101052.97;;;12.78;82.23
43824;BME280;29470;53.550;9.926;2023-03-21T03:23:49;101035.16;;;13.24;80.90
43824;BME280;29470;53.550;9.926;2023-03-21T03:28:57;101030.25;;;13.43;78.54
43824;BME280;29470;53.550;9.926;2023-03-21T03:34:05;101035.09;;;12.82;82.28
43824;BME280;29470;53.550;9.926;2023-03-21T03:39:14;101038.00;;;12.74;84.17
43824;BME280;29470;53.550;9.926;2023-03-21T03:44:23;101036.50;;;12.77;82.16
43824;BME280;29470;53.550;9.926;2023-03-21T03:49:36;101039.38;;;12.42;84.78
43824;BME280;29470;53.550;9.926;2023-03-21T03:54:45;101038.06;;;12.48;83.73
43824;BME280;29470;53.550;9.926;2023-03-21T03:59:51;101035.28;;;12.72;83.87
43824;BME280;29470;53.550;9.926;2023-03-21T04:05:17;101035.50;;;12.89;82.69
43824;BME280;29470;53.550;9.926;2023-03-21T04:10:21;101029.69;;;12.93;82.80
43824;BME280;29470;53.550;9.926;2023-03-21T04:15:26;101025.28;;;13.19;81.28
43824;BME280;29470;53.550;9.926;2023-03-21T04:20:36;101035.09;;;12.69;83.59
43824;BME280;29470;53.550;9.926;2023-03-21T04:25:40;101029.44;;;13.44;80.58
43824;BME280;29470;53.550;9.926;2023-03-21T04:30:57;101027.09;;;12.93;82.67
43824;BME280;29470;53.550;9.926;2023-03-21T04:36:18;101023.41;;;13.58;80.99
43824;BME280;29470;53.550;9.926;2023-03-21T04:41:31;101014.50;;;13.54;81.00
43824;BME280;29470;53.550;9.926;2023-03-21T04:46:35;101018.25;;;13.73;80.04
43824;BME280;29470;53.550;9.926;2023-03-21T04:51:40;101016.22;;;13.40;78.37
43824;BME280;29470;53.550;9.926;2023-03-21T04:56:45;101018.47;;;13.21;80.47
43824;BME280;29470;53.550;9.926;2023-03-21T05:01:50;101012.22;;;13.74;78.40
43824;BME280;29470;53.550;9.926;2023-03-21T05:06:53;101019.94;;;13.73;78.10
43824;BME280;29470;53.550;9.926;2023-03-21T05:11:56;101017.38;;;13.88;77.98
43824;BME280;29470;53.550;9.926;2023-03-21T05:17:01;101011.59;;;14.07;77.27
43824;BME280;29470;53.550;9.926;2023-03-21T05:22:08;101018.91;;;13.84;77.97
43824;BME280;29470;53.550;9.926;2023-03-21T05:27:12;101011.63;;;13.50;78.87
43824;BME280;29470;53.550;9.926;2023-03-21T05:32:28;101011.59;;;13.21;82.73
43824;BME280;29470;53.550;9.926;2023-03-21T05:37:31;101009.09;;;13.23;82.59
43824;BME280;29470;53.550;9.926;2023-03-21T05:42:34;101000.22;;;13.19;82.69
43824;BME280;29470;53.550;9.926;2023-03-21T05:47:47;100999.25;;;13.46;81.02
43824;BME280;29470;53.550;9.926;2023-03-21T05:52:50;101000.25;;;13.48;80.22
43824;BME280;29470;53.550;9.926;2023-03-21T05:57:53;101003.72;;;13.48;82.19
43824;BME280;29470;53.550;9.926;2023-03-21T06:03:02;101004.59;;;13.62;79.47
43824;BME280;29470;53.550;9.926;2023-03-21T06:08:20;100997.28;;;13.42;81.93
43824;BME280;29470;53.550;9.926;2023-03-21T06:13:23;100992.72;;;13.81;78.97
43824;BME280;29470;53.550;9.926;2023-03-21T06:18:28;100988.25;;;13.50;81.89
43824;BME280;29470;53.550;9.926;2023-03-21T06:23:53;100988.69;;;12.87;83.02
43824;BME280;29470;53.550;9.926;2023-03-21T06:28:57;100988.34;;;13.51;82.80
43824;BME280;29470;53.550;9.926;2023-03-21T06:34:01;100994.03;;;13.59;80.84
43824;BME280;29470;53.550;9.926;2023-03-21T06:39:05;100992.00;;;13.83;80.25
43824;BME280;29470;53.550;9.926;2023-03-21T06:44:12;100986.47;;;13.64;80.94
43824;BME280;29470;53.550;9.926;2023-03-21T06:49:25;100990.31;;;13.55;80.68
43824;BME280;29470;53.550;9.926;2023-03-21T06:54:32;100992.22;;;14.02;78.08
43824;BME280;29470;53.550;9.926;2023-03-21T06:59:42;100993.63;;;13.96;77.18
43824;BME280;29470;53.550;9.926;2023-03-21T07:04:52;100995.34;;;14.26;78.10
43824;BME280;29470;53.550;9.926;2023-03-21T07:09:58;100993.72;;;14.28;75.72
43824;BME280;29470;53.550;9.926;2023-03-21T07:15:06;100994.72;;;14.30;76.86
43824;BME280;29470;53.550;9.926;2023-03-21T07:20:12;100984.66;;;14.36;76.03
43824;BME280;29470;53.550;9.926;2023-03-21T07:25:15;100989.69;;;14.33;77.03
43824;BME280;29470;53.550;9.926;2023-03-21T07:30:21;100982.31;;;14.56;73.67
43824;BME280;29470;53.550;9.926;2023-03-21T07:35:25;100981.19;;;14.82;73.62
43824;BME280;29470;53.550;9.926;2023-03-21T07:40:28;100989.59;;;14.47;73.57
43824;BME280;29470;53.550;9.926;2023-03-21T07:45:31;100984.25;;;14.90;75.10
43824;BME280;29470;53.550;9.926;2023-03-21T07:50:35;100986.66;;;15.19;72.57
43824;BME280;29470;53.550;9.926;2023-03-21T07:55:40;100979.41;;;14.81;74.68
43824;BME280;29470;53.550;9.926;2023-03-21T08:00:43;100987.25;;;13.48;79.22
43824;BME280;29470;53.550;9.926;2023-03-21T08:05:48;100983.72;;;14.66;76.62
43824;BME280;29470;53.550;9.926;2023-03-21T08:10:51;100984.25;;;14.75;74.03
43824;BME280;29470;53.550;9.926;2023-03-21T08:15:53;100976.06;;;14.69;74.35
43824;BME280;29470;53.550;9.926;2023-03-21T08:20:58;100973.91;;;14.92;73.32
43824;BME280;29470;53.550;9.926;2023-03-21T08:26:01;100978.31;;;15.09;73.21
43824;BME280;29470;53.550;9.926;2023-03-21T08:31:06;100967.81;;;14.91;73.40
43824;BME280;29470;53.550;9.926;2023-03-21T08:36:11;100978.13;;;14.90;74.38
43824;BME280;29470;53.550;9.926;2023-03-21T08:41:14;100981.81;;;15.10;73.07
43824;BME280;29470;53.550;9.926;2023-03-21T08:46:17;100969.03;;;14.98;74.58
43824;BME280;29470;53.550;9.926;2023-03-21T08:51:21;100973.75;;;15.05;73.58
43824;BME280;29470;53.550;9.926;2023-03-21T08:56:24;100976.38;;;15.05;73.21
43824;BME280;29470;53.550;9.926;2023-03-21T09:01:27;100976.84;;;14.98;72.20
43824;BME280;29470;53.550;9.926;2023-03-21T09:06:31;100972.16;;;15.40;71.02
43824;BME280;29470;53.550;9.926;2023-03-21T09:11:34;100970.03;;;15.66;70.30
43824;BME280;29470;53.550;9.926;2023-03-21T09:16:37;100964.56;;;14.95;73.31
43824;BME280;29470;53.550;9.926;2023-03-21T09:21:42;100960.59;;;15.35;72.80
43824;BME280;29470;53.550;9.926;2023-03-21T09:26:45;100968.75;;;15.58;72.54
43824;BME280;29470;53.550;9.926;2023-03-21T09:31:54;100965.66;;;15.65;71.08
43824;BME280;29470;53.550;9.926;2023-03-21T09:36:59;100960.16;;;16.46;66.79
43824;BME280;29470;53.550;9.926;2023-03-21T09:42:12;100962.03;;;15.80;69.68
43824;BME280;29470;53.550;9.926;2023-03-21T09:47:21;100961.78;;;16.26;68.74
43824;BME280;29470;53.550;9.926;2023-03-21T09:52:30;100966.50;;;16.52;67.33
43824;BME280;29470;53.550;9.926;2023-03-21T09:57:37;100957.97;;;16.74;66.24
43824;BME280;29470;53.550;9.926;2023-03-21T10:02:44;100963.47;;;16.80;67.22
43824;BME280;29470;53.550;9.926;2023-03-21T10:07:54;100956.41;;;16.77;68.41
43824;BME280;29470;53.550;9.926;2023-03-21T10:12:58;100956.66;;;16.28;68.48
43824;BME280;29470;53.550;9.926;2023-03-21T10:18:04;100950.34;;;16.97;67.15
43824;BME280;29470;53.550;9.926;2023-03-21T10:23:13;100940.50;;;16.73;67.40
43824;BME280;29470;53.550;9.926;2023-03-21T10:28:19;100934.41;;;16.54;68.04
43824;BME280;29470;53.550;9.926;2023-03-21T10:33:25;100934.28;;;15.98;70.53
43824;BME280;29470;53.550;9.926;2023-03-21T10:38:30;100935.25;;;15.49;72.53
43824;BME280;29470;53.550;9.926;2023-03-21T10:43:35;100939.59;;;15.32;75.13
43824;BME280;29470;53.550;9.926;2023-03-21T10:48:40;100932.00;;;15.37;76.83
43824;BME280;29470;53.550;9.926;2023-03-21T10:53:52;100934.22;;;15.45;77.34
43824;BME280;29470;53.550;9.926;2023-03-21T10:58:58;100935.69;;;15.40;76.35
43824;BME280;29470;53.550;9.926;2023-03-21T11:04:06;100924.03;;;15.17;76.95
43824;BME280;29470;53.550;9.926;2023-03-21T11:09:15;100926.47;;;15.47;75.90
43824;BME280;29470;53.550;9.926;2023-03-21T11:14:31;100907.28;;;16.51;72.91
43824;BME280;29470;53.550;9.926;2023-03-21T11:19:35;100905.16;;;16.61;71.05
43824;BME280;29470;53.550;9.926;2023-03-21T11:24:39;100912.25;;;16.64;69.73
43824;BME280;29470;53.550;9.926;2023-03-21T11:29:45;100907.13;;;16.85;72.05
43824;BME280;29470;53.550;9.926;2023-03-21T11:34:51;100901.91;;;16.11;72.71
43824;BME280;29470;53.550;9.926;2023-03-21T11:40:12;100895.66;;;16.26;74.35
43824;BME280;29470;53.550;9.926;2023-03-21T11:45:21;100895.38;;;16.57;69.78
43824;BME280;29470;53.550;9.926;2023-03-21T11:50:28;100879.47;;;16.33;72.01
43824;BME280;29470;53.550;9.926;2023-03-21T11:55:44;100889.81;;;15.44;75.99
43824;BME280;29470;53.550;9.926;2023-03-21T12:00:58;100877.00;;;16.18;74.09
43824;BME280;29470;53.550;9.926;2023-03-21T12:06:12;100869.06;;;16.90;68.92
43824;BME280;29470;53.550;9.926;2023-03-21T12:11:24;100866.19;;;17.43;67.89
43824;BME280;29470;53.550;9.926;2023-03-21T12:16:40;100861.41;;;16.95;68.77
43824;BME280;29470;53.550;9.926;2023-03-21T12:21:53;100853.00;;;17.01;69.74
43824;BME280;29470;53.550;9.926;2023-03-21T12:27:09;100849.56;;;17.21;69.38
43824;BME280;29470;53.550;9.926;2023-03-21T12:32:20;100849.44;;;15.87;72.89
43824;BME280;29470;53.550;9.926;2023-03-21T12:37:32;100841.72;;;15.55;74.83
43824;BME280;29470;53.550;9.926;2023-03-21T12:42:54;100842.44;;;15.18;77.07
43824;BME280;29470;53.550;9.926;2023-03-21T12:48:04;100836.97;;;16.55;70.90
43824;BME280;29470;53.550;9.926;2023-03-21T12:53:29;100826.00;;;15.88;72.84
43824;BME280;29470;53.550;9.926;2023-03-21T12:58:44;100822.75;;;15.58;75.35
43824;BME280;29470;53.550;9.926;2023-03-21T13:03:55;100818.94;;;16.04;73.36
43824;BME280;29470;53.550;9.926;2023-03-21T13:09:04;100808.25;;;15.99;73.08
43824;BME280;29470;53.550;9.926;2023-03-21T13:14:14;100801.84;;;15.74;74.61
43824;BME280;29470;53.550;9.926;2023-03-21T13:19:25;100794.94;;;16.49;72.04
43824;BME280;29470;53.550;9.926;2023-03-21T13:24:33;100795.16;;;15.80;74.67
43824;BME280;29470;53.550;9.926;2023-03-21T13:29:45;100785.88;;;16.60;71.50
43824;BME280;29470;53.550;9.926;2023-03-21T13:34:54;100790.53;;;16.10;74.72
43824;BME280;29470;53.550;9.926;2023-03-21T13:40:00;100784.47;;;16.49;73.89
43824;BME280;29470;53.550;9.926;2023-03-21T13:45:23;100791.59;;;16.33;74.16
43824;BME280;29470;53.550;9.926;2023-03-21T13:50:34;100784.75;;;16.94;71.80
43824;BME280;29470;53.550;9.926;2023-03-21T13:55:40;100776.34;;;16.61;70.09
43824;BME280;29470;53.550;9.926;2023-03-21T14:01:04;100777.47;;;16.68;69.45
43824;BME280;29470;53.550;9.926;2023-03-21T14:06:09;100774.25;;;16.34;71.04
43824;BME280;29470;53.550;9.926;2023-03-21T14:11:15;100764.53;;;15.94;73.57
43824;BME280;29470;53.550;9.926;2023-03-21T14:16:23;100764.38;;;16.66;73.06
43824;BME280;29470;53.550;9.926;2023-03-21T14:21:31;100756.69;;;15.75;75.46
43824;BME280;29470;53.550;9.926;2023-03-21T14:26:37;100750.28;;;16.05;76.68
43824;BME280;29470;53.550;9.926;2023-03-21T14:31:44;100754.44;;;15.47;78.71
43824;BME280;29470;53.550;9.926;2023-03-21T14:36:47;100739.72;;;16.02;75.65
43824;BME280;29470;53.550;9.926;2023-03-21T14:42:02;100747.75;;;16.07;74.24
43824;BME280;29470;53.550;9.926;2023-03-21T14:47:16;100739.06;;;15.88;73.83
43824;BME280;29470;53.550;9.926;2023-03-21T14:52:22;100739.28;;;15.93;74.88
43824;BME280;29470;53.550;9.926;2023-03-21T14:57:28;100736.38;;;16.44;74.43
43824;BME280;29470;53.550;9.926;2023-03-21T15:02:34;100716.72;;;16.91;73.09
43824;BME280;29470;53.550;9.926;2023-03-21T15:07:39;100712.06;;;16.45;73.92
43824;BME280;29470;53.550;9.926;2023-03-21T15:12:49;100706.34;;;15.95;74.56
43824;BME280;29470;53.550;9.926;2023-03-21T15:17:55;100694.56;;;15.67;76.85
43824;BME280;29470;53.550;9.926;2023-03-21T15:23:05;100703.22;;;16.22;75.98
43824;BME280;29470;53.550;9.926;2023-03-21T15:28:13;100695.13;;;15.97;73.96
43824;BME280;29470;53.550;9.926;2023-03-21T15:33:17;100701.84;;;15.74;75.28
43824;BME280;29470;53.550;9.926;2023-03-21T15:38:23;100695.00;;;15.76;73.91
43824;BME280;29470;53.550;9.926;2023-03-21T15:43:37;100691.06;;;15.30;76.22
43824;BME280;29470;53.550;9.926;2023-03-21T15:48:43;100687.41;;;16.18;73.56
43824;BME280;29470;53.550;9.926;2023-03-21T15:53:46;100695.91;;;15.95;71.78
43824;BME280;29470;53.550;9.926;2023-03-21T15:58:51;100683.25;;;15.48;72.72
43824;BME280;29470;53.550;9.926;2023-03-21T16:03:57;100693.25;;;15.57;71.67
43824;BME280;29470;53.550;9.926;2023-03-21T16:09:09;100692.75;;;15.11;73.59
43824;BME280;29470;53.550;9.926;2023-03-21T16:14:14;100686.75;;;15.49;71.72
43824;BME280;29470;53.550;9.926;2023-03-21T16:19:19;100693.13;;;15.19;72.21
43824;BME280;29470;53.550;9.926;2023-03-21T16:24:22;100693.38;;;15.42;69.77
43824;BME280;29470;53.550;9.926;2023-03-21T16:29:25;100687.19;;;15.76;69.58
43824;BME280;29470;53.550;9.926;2023-03-21T16:34:29;100686.34;;;15.77;69.18
43824;BME280;29470;53.550;9.926;2023-03-21T16:39:32;100675.63;;;14.98;72.69
43824;BME280;29470;53.550;9.926;2023-03-21T16:44:35;100684.41;;;15.91;69.65
43824;BME280;29470;53.550;9.926;2023-03-21T16:49:41;100680.31;;;15.96;67.96
43824;BME280;29470;53.550;9.926;2023-03-21T16:54:44;100665.78;;;15.83;67.43
43824;BME280;29470;53.550;9.926;2023-03-21T16:59:46;100662.00;;;15.58;69.60
43824;BME280;29470;53.550;9.926;2023-03-21T17:04:51;100676.84;;;15.41;70.11
43824;BME280;29470;53.550;9.926;2023-03-21T17:09:53;100672.53;;;15.42;71.38
43824;BME280;29470;53.550;9.926;2023-03-21T17:14:56;100670.00;;;15.43;71.29
43824;BME280;29470;53.550;9.926;2023-03-21T17:20:01;100673.09;;;15.18;72.44
43824;BME280;29470;53.550;9.926;2023-03-21T17:25:11;100667.00;;;15.36;71.76
43824;BME280;29470;53.550;9.926;2023-03-21T17:30:22;100657.78;;;15.24;73.19
43824;BME280;29470;53.550;9.926;2023-03-21T17:35:27;100663.44;;;15.15;73.38
43824;BME280;29470;53.550;9.926;2023-03-21T17:40:31;100664.19;;;15.31;72.98
43824;BME280;29470;53.550;9.926;2023-03-21T17:45:35;100670.94;;;15.27;73.62
43824;BME280;29470;53.550;9.926;2023-03-21T17:50:39;100672.75;;;15.10;74.47
43824;BME280;29470;53.550;9.926;2023-03-21T17:55:42;100676.84;;;15.23;74.51
43824;BME280;29470;53.550;9.926;2023-03-21T18:00:44;100674.84;;;15.17;75.32
43824;BME280;29470;53.550;9.926;2023-03-21T18:05:49;100667.31;;;15.42;73.36
43824;BME280;29470;53.550;9.926;2023-03-21T18:10:52;100668.50;;;15.12;74.64
43824;BME280;29470;53.550;9.926;2023-03-21T18:15:55;100662.13;;;15.24;74.40
43824;BME280;29470;53.550;9.926;2023-03-21T18:21:01;100668.25;;;15.08;74.01
43824;BME280;29470;53.550;9.926;2023-03-21T18:26:05;100667.31;;;15.24;74.59
43824;BME280;29470;53.550;9.926;2023-03-21T18:31:13;100659.34;;;15.39;73.81
43824;BME280;29470;53.550;9.926;2023-03-21T18:36:21;100663.44;;;15.34;74.07
43824;BME280;29470;53.550;9.926;2023-03-21T18:41:28;100651.84;;;15.27;74.48
43824;BME280;29470;53.550;9.926;2023-03-21T18:46:31;100642.97;;;15.23;73.80
43824;BME280;29470;53.550;9.926;2023-03-21T18:51:35;100651.59;;;15.22;74.78
43824;BME280;29470;53.550;9.926;2023-03-21T18:56:38;100654.94;;;15.38;74.14
43824;BME280;29470;53.550;9.926;2023-03-21T19:02:03;100650.66;;;15.38;73.74
43824;BME280;29470;53.550;9.926;2023-03-21T19:07:08;100650.41;;;15.34;73.48
43824;BME280;29470;53.550;9.926;2023-03-21T19:12:10;100660.84;;;15.34;73.79
43824;BME280;29470;53.550;9.926;2023-03-21T19:17:13;100650.28;;;15.49;72.73
43824;BME280;29470;53.550;9.926;2023-03-21T19:22:38;100656.22;;;15.64;73.23
43824;BME280;29470;53.550;9.926;2023-03-21T19:27:41;100654.34;;;15.61;72.06
43824;BME280;29470;53.550;9.926;2023-03-21T19:32:44;100652.22;;;15.53;71.38
43824;BME280;29470;53.550;9.926;2023-03-21T19:37:49;100637.69;;;15.58;72.19
43824;BME280;29470;53.550;9.926;2023-03-21T19:42:51;100639.78;;;15.85;70.44
43824;BME280;29470;53.550;9.926;2023-03-21T19:47:55;100633.72;;;15.66;72.23
43824;BME280;29470;53.550;9.926;2023-03-21T19:53:00;100643.03;;;15.43;72.03
43824;BME280;29470;53.550;9.926;2023-03-21T19:58:03;100635.28;;;16.20;70.18
43824;BME280;29470;53.550;9.926;2023-03-21T20:03:06;100624.72;;;15.97;68.97
43824;BME280;29470;53.550;9.926;2023-03-21T20:08:12;100628.31;;;15.81;71.33
43824;BME280;29470;53.550;9.926;2023-03-21T20:13:14;100618.53;;;15.21;75.65
43824;BME280;29470;53.550;9.926;2023-03-21T20:18:17;100617.94;;;15.09;75.09
43824;BME280;29470;53.550;9.926;2023-03-21T20:23:22;100609.16;;;15.61;73.73
43824;BME280;29470;53.550;9.926;2023-03-21T20:28:25;100612.56;;;14.69;75.14
43824;BME280;29470;53.550;9.926;2023-03-21T20:33:30;100605.44;;;14.49;77.88
43824;BME280;29470;53.550;9.926;2023-03-21T20:38:35;100612.19;;;15.52;74.16
43824;BME280;29470;53.550;9.926;2023-03-21T20:43:40;100614.44;;;15.26;73.72
43824;BME280;29470;53.550;9.926;2023-03-21T20:49:02;100614.81;;;15.52;72.23
43824;BME280;29470;53.550;9.926;2023-03-21T20:54:08;100608.66;;;14.96;72.78
43824;BME280;29470;53.550;9.926;2023-03-21T20:59:11;100609.00;;;15.96;70.12
43824;BME280;29470;53.550;9.926;2023-03-21T21:04:26;100597.84;;;15.80;69.84
43824;BME280;29470;53.550;9.926;2023-03-21T21:09:53;100595.94;;;15.38;69.96
43824;BME280;29470;53.550;9.926;2023-03-21T21:14:55;100597.09;;;15.83;69.76
43824;BME280;29470;53.550;9.926;2023-03-21T21:19:58;100593.41;;;16.17;68.11
43824;BME280;29470;53.550;9.926;2023-03-21T21:25:14;100584.50;;;14.98;71.64
43824;BME280;29470;53.550;9.926;2023-03-21T21:30:26;100583.47;;;15.32;71.13
43824;BME280;29470;53.550;9.926;2023-03-21T21:35:30;100575.44;;;15.66;69.45
43824;BME280;29470;53.550;9.926;2023-03-21T21:40:35;100573.63;;;15.07;71.16
43824;BME280;29470;53.550;9.926;2023-03-21T21:45:38;100563.56;;;15.90;68.49
43824;BME280;29470;53.550;9.926;2023-03-21T21:50:42;100561.41;;;16.01;67.87
43824;BME280;29470;53.550;9.926;2023-03-21T21:55:46;100565.03;;;15.85;68.31
43824;BME280;29470;53.550;9.926;2023-03-21T22:00:49;100574.38;;;15.80;67.17
43824;BME280;29470;53.550;9.926;2023-03-21T22:06:00;100572.63;;;15.41;68.59
43824;BME280;29470;53.550;9.926;2023-03-21T22:11:05;100563.13;;;14.87;69.44
43824;BME280;29470;53.550;9.926;2023-03-21T22:16:08;100571.00;;;15.07;70.11
43824;BME280;29470;53.550;9.926;2023-03-21T22:21:11;100553.88;;;16.08;65.93
43824;BME280;29470;53.550;9.926;2023-03-21T22:26:15;100558.34;;;15.15;68.25
43824;BME280;29470;53.550;9.926;2023-03-21T22:31:18;100547.75;;;15.30;67.88
43824;BME280;29470;53.550;9.926;2023-03-21T22:36:23;100542.03;;;15.37;67.93
43824;BME280;29470;53.550;9.926;2023-03-21T22:41:27;100542.34;;;15.07;68.31
43824;BME280;29470;53.550;9.926;2023-03-21T22:46:29;100533.22;;;14.97;68.00
43824;BME280;29470;53.550;9.926;2023-03-21T22:51:32;100531.22;;;15.29;66.22
43824;BME280;29470;53.550;9.926;2023-03-21T22:56:37;100531.56;;;15.17;66.79
43824;BME280;29470;53.550;9.926;2023-03-21T23:01:39;100532.84;;;14.71;68.95
43824;BME280;29470;53.550;9.926;2023-03-21T23:06:42;100539.16;;;14.42;70.44
43824;BME280;29470;53.550;9.926;2023-03-21T23:11:47;100533.41;;;14.31;70.30
43824;BME280;29470;53.550;9.926;2023-03-21T23:16:51;100530.66;;;14.28;71.80
43824;BME280;29470;53.550;9.926;2023-03-21T23:21:55;100523.06;;;14.33;69.97
43824;BME280;29470;53.550;9.926;2023-03-21T23:27:00;100522.50;;;14.04;71.81
43824;BME280;29470;53.550;9.926;2023-03-21T23:32:03;100519.50;;;14.31;70.98
43824;BME280;29470;53.550;9.926;2023-03-21T23:37:06;100522.69;;;13.57;73.44
43824;BME280;29470;53.550;9.926;2023-03-21T23:42:11;100525.94;;;14.55;69.19
43824;BME280;29470;53.550;9.926;2023-03-21T23:47:14;100524.31;;;13.55;73.59
43824;BME280;29470;53.550;9.926;2023-03-21T23:52:17;100513.00;;;13.88;73.04
43824;BME280;29470;53.550;9.926;2023-03-21T23:57:21;100501.34;;;14.14;71.42
